Time;durP1;ratioP1;P1;durP2;ratioP2;P2;SDS_P1;SDS_P2;PMS_P1;PMS_P2;Temp;Humidity;BMP_temperature;BMP_pressure;BME280_temperature;BME280_humidity;BME280_pressure;Samples;Min_cycle;Max_cycle;Signal;HPM_P1;HPM_P2
2023/03/08 00:01:42;;;;;;;;;;;;;;;3.85;100.00;99008.81;5590264;31;35575;-66
2023/03/08 00:04:54;;;;;;;;;;;;;;;3.79;100.00;99006.00;5564397;31;33258;-67
2023/03/08 00:08:02;;;;;;;;;;;;;;;3.69;100.00;99010.53;5590339;31;34608;-66
2023/03/08 00:11:09;;;;;;;;;;;;;;;3.72;100.00;99012.88;5576173;31;34556;-66
2023/03/08 00:14:21;;;;;;;;;;;;;;;3.60;100.00;99024.59;5590285;31;34365;-66
2023/03/08 00:17:29;;;;;;;;;;;;;;;3.45;100.00;99021.72;5576980;31;34266;-66
2023/03/08 00:20:39;;;;;;;;;;;;;;;3.29;100.00;99022.44;5590430;31;34305;-66
2023/03/08 00:23:46;;;;;;;;;;;;;;;3.21;100.00;99025.03;5590376;31;34896;-67
2023/03/08 00:26:57;;;;;;;;;;;;;;;3.15;100.00;99023.00;5577066;31;33587;-66
2023/03/08 00:30:09;;;;;;;;;;;;;;;3.00;100.00;99027.19;5590271;31;35038;-66
2023/03/08 00:33:17;;;;;;;;;;;;;;;2.99;100.00;99029.00;5576553;31;34017;-66
2023/03/08 00:36:25;;;;;;;;;;;;;;;2.87;100.00;99032.81;5577026;31;34760;-67
2023/03/08 00:39:38;;;;;;;;;;;;;;;2.70;100.00;99036.28;5563875;31;34289;-67
2023/03/08 00:42:48;;;;;;;;;;;;;;;2.63;100.00;99027.38;5563828;31;33671;-66
2023/03/08 00:45:54;;;;;;;;;;;;;;;2.57;100.00;99022.72;5563469;31;32818;-67
2023/03/08 00:49:04;;;;;;;;;;;;;;;2.53;100.00;99005.69;5577204;31;34191;-66
2023/03/08 00:52:11;;;;;;;;;;;;;;;2.44;100.00;99014.44;5576630;31;34231;-66
2023/03/08 00:55:19;;;;;;;;;;;;;;;2.33;100.00;99015.47;5575784;31;34751;-67
2023/03/08 00:58:27;;;;;;;;;;;;;;;2.38;100.00;99013.22;5575213;31;32925;-67
2023/03/08 01:01:36;;;;;;;;;;;;;;;2.74;100.00;99000.13;5590098;31;34137;-66
2023/03/08 01:04:43;;;;;;;;;;;;;;;2.82;100.00;99010.66;5563488;31;34502;-67
2023/03/08 01:07:51;;;;;;;;;;;;;;;2.84;100.00;99013.97;5563483;31;34685;-67
2023/03/08 01:11:00;;;;;;;;;;;;;;;2.72;100.00;99021.22;5576609;31;34361;-68
2023/03/08 01:14:08;;;;;;;;;;;;;;;2.50;100.00;99033.00;5570150;31;34855;-67
2023/03/08 01:17:15;;;;;;;;;;;;;;;2.35;100.00;99024.00;5589818;31;35108;-66
2023/03/08 01:20:25;;;;;;;;;;;;;;;2.29;100.00;99032.44;5576962;31;35105;-67
2023/03/08 01:23:34;;;;;;;;;;;;;;;2.58;100.00;99021.75;5563643;31;32983;-67
2023/03/08 01:26:43;;;;;;;;;;;;;;;3.13;100.00;99022.38;5563582;31;33964;-66
2023/03/08 01:29:51;;;;;;;;;;;;;;;3.63;100.00;99019.84;5589755;31;34439;-67
2023/03/08 01:33:02;;;;;;;;;;;;;;;3.38;100.00;99024.16;5576781;31;34219;-67
2023/03/08 01:36:11;;;;;;;;;;;;;;;3.17;100.00;99031.56;5575522;31;33207;-67
2023/03/08 01:39:23;;;;;;;;;;;;;;;3.10;100.00;99045.44;5589683;31;34791;-67
2023/03/08 01:42:31;;;;;;;;;;;;;;;2.91;100.00;99038.56;5564147;31;33910;-66
2023/03/08 01:46:02;;;;;;;;;;;;;;;2.84;100.00;99048.00;5576706;31;34866;-66
2023/03/08 01:49:15;;;;;;;;;;;;;;;2.72;100.00;99051.81;5575613;31;36145;-66
2023/03/08 01:52:32;;;;;;;;;;;;;;;2.55;100.00;99048.25;5576486;31;34909;-66
2023/03/08 01:55:39;;;;;;;;;;;;;;;2.46;100.00;99055.22;5576368;31;34209;-66
2023/03/08 01:58:49;;;;;;;;;;;;;;;2.34;100.00;99060.78;5562893;31;35849;-66
2023/03/08 02:02:00;;;;;;;;;;;;;;;2.40;100.00;99061.03;5576470;31;34345;-66
2023/03/08 02:05:16;;;;;;;;;;;;;;;2.39;100.00;99059.38;5569722;31;34271;-66
2023/03/08 02:08:24;;;;;;;;;;;;;;;2.34;100.00;99068.63;5575976;31;34535;-66
2023/03/08 02:11:34;;;;;;;;;;;;;;;2.26;100.00;99068.56;5574852;31;34196;-66
2023/03/08 02:14:43;;;;;;;;;;;;;;;2.24;100.00;99065.25;5575273;31;33999;-66
2023/03/08 02:17:52;;;;;;;;;;;;;;;2.27;100.00;99073.66;5589252;31;34145;-66
2023/03/08 02:21:02;;;;;;;;;;;;;;;2.30;100.00;99078.56;5562930;31;34042;-66
2023/03/08 02:24:25;;;;;;;;;;;;;;;2.35;100.00;99078.97;5562963;31;34083;-67
2023/03/08 02:27:32;;;;;;;;;;;;;;;2.27;100.00;99080.66;5589154;31;33179;-66
2023/03/08 02:30:41;;;;;;;;;;;;;;;2.17;100.00;99080.72;5589085;31;34400;-66
2023/03/08 02:33:51;;;;;;;;;;;;;;;2.25;100.00;99074.75;5589072;31;34735;-66
2023/03/08 02:37:02;;;;;;;;;;;;;;;2.06;100.00;99075.69;5562945;31;33318;-68
2023/03/08 02:40:10;;;;;;;;;;;;;;;1.96;100.00;99090.59;5562137;31;33034;-66
2023/03/08 02:43:18;;;;;;;;;;;;;;;1.83;100.00;99088.31;5562653;31;33765;-67
2023/03/08 02:46:26;;;;;;;;;;;;;;;1.75;100.00;99098.66;5588926;31;34306;-66
2023/03/08 02:49:34;;;;;;;;;;;;;;;1.73;100.00;99109.28;5588704;31;34247;-66
2023/03/08 02:52:42;;;;;;;;;;;;;;;1.65;100.00;99110.94;5588645;31;34440;-66
2023/03/08 02:55:52;;;;;;;;;;;;;;;1.58;100.00;99109.87;5575602;31;34224;-66
2023/03/08 02:59:02;;;;;;;;;;;;;;;1.58;100.00;99115.09;5574607;31;35475;-66
2023/03/08 03:02:13;;;;;;;;;;;;;;;1.52;100.00;99126.09;5574089;31;33338;-67
2023/03/08 03:05:19;;;;;;;;;;;;;;;1.50;100.00;99121.00;5575006;31;34714;-66
2023/03/08 03:08:30;;;;;;;;;;;;;;;1.59;100.00;99122.81;5588431;31;34254;-66
2023/03/08 03:11:39;;;;;;;;;;;;;;;1.69;100.00;99128.00;5571202;31;35140;-66
2023/03/08 03:14:47;;;;;;;;;;;;;;;1.80;100.00;99137.44;5574848;31;34857;-66
2023/03/08 03:17:56;;;;;;;;;;;;;;;1.81;100.00;99136.47;5575004;31;34325;-66
2023/03/08 03:21:06;;;;;;;;;;;;;;;1.91;100.00;99134.66;5574043;31;33338;-66
2023/03/08 03:24:16;;;;;;;;;;;;;;;2.08;100.00;99144.38;5576912;31;33264;-66
2023/03/08 03:27:31;;;;;;;;;;;;;;;2.08;100.00;99139.94;5578261;31;34279;-66
2023/03/08 03:30:39;;;;;;;;;;;;;;;2.07;100.00;99156.63;5590856;31;34306;-66
2023/03/08 03:33:49;;;;;;;;;;;;;;;2.11;100.00;99163.22;5590799;31;34288;-66
2023/03/08 03:36:59;;;;;;;;;;;;;;;2.13;100.00;99174.34;5590048;31;34421;-66
2023/03/08 03:40:09;;;;;;;;;;;;;;;2.13;100.00;99174.34;5589455;31;35760;-66
2023/03/08 03:43:18;;;;;;;;;;;;;;;2.13;100.00;99173.56;5564178;31;33838;-66
2023/03/08 03:46:28;;;;;;;;;;;;;;;2.21;100.00;99172.81;5577452;31;33563;-67
2023/03/08 03:49:42;;;;;;;;;;;;;;;2.19;100.00;99171.16;5578188;31;34088;-66
2023/03/08 03:52:53;;;;;;;;;;;;;;;2.29;100.00;99167.69;5576986;31;33513;-66
2023/03/08 03:56:05;;;;;;;;;;;;;;;2.29;100.00;99158.03;5589832;31;34683;-67
2023/03/08 03:59:15;;;;;;;;;;;;;;;2.19;100.00;99152.03;5589709;31;34296;-67
2023/03/08 04:02:23;;;;;;;;;;;;;;;2.50;100.00;99149.97;5589811;31;34480;-66
2023/03/08 04:05:33;;;;;;;;;;;;;;;2.67;100.00;99143.91;5590381;31;33833;-67
2023/03/08 04:08:41;;;;;;;;;;;;;;;2.48;100.00;99130.94;5589687;31;34149;-67
2023/03/08 04:11:55;;;;;;;;;;;;;;;2.64;100.00;99136.38;5589007;31;33011;-66
2023/03/08 04:15:04;;;;;;;;;;;;;;;2.84;100.00;99137.06;5563980;31;33543;-66
2023/03/08 04:18:18;;;;;;;;;;;;;;;2.77;100.00;99138.59;5589528;31;34202;-67
2023/03/08 04:21:28;;;;;;;;;;;;;;;2.57;100.00;99141.34;5576041;31;34146;-67
2023/03/08 04:24:40;;;;;;;;;;;;;;;2.42;100.00;99150.66;5590312;31;34584;-67
2023/03/08 04:27:49;;;;;;;;;;;;;;;2.31;100.00;99171.00;5576327;31;34594;-66
2023/03/08 04:30:58;;;;;;;;;;;;;;;2.26;100.00;99181.06;5577238;31;33789;-67
2023/03/08 04:34:06;;;;;;;;;;;;;;;2.10;100.00;99187.72;5588325;31;34909;-66
2023/03/08 04:37:14;;;;;;;;;;;;;;;2.02;100.00;99182.41;5590425;31;34830;-67
2023/03/08 04:40:23;;;;;;;;;;;;;;;1.93;100.00;99183.25;5590165;31;34345;-66
2023/03/08 04:43:32;;;;;;;;;;;;;;;1.88;100.00;99195.09;5576570;31;33369;-67
2023/03/08 04:46:41;;;;;;;;;;;;;;;1.89;100.00;99191.53;5576622;31;33009;-66
2023/03/08 04:49:53;;;;;;;;;;;;;;;1.95;100.00;99199.63;5577112;31;35203;-66
2023/03/08 04:53:04;;;;;;;;;;;;;;;1.98;100.00;99207.19;5590049;31;34884;-68
2023/03/08 04:56:17;;;;;;;;;;;;;;;1.97;100.00;99205.53;5576803;31;33686;-68
2023/03/08 04:59:28;;;;;;;;;;;;;;;2.08;100.00;99205.34;5576788;31;33244;-68
2023/03/08 05:02:36;;;;;;;;;;;;;;;2.10;100.00;99194.75;5588802;31;33240;-68
2023/03/08 05:05:49;;;;;;;;;;;;;;;2.43;100.00;99199.44;5589264;31;34899;-68
2023/03/08 05:08:58;;;;;;;;;;;;;;;2.46;100.00;99195.72;5589858;31;34274;-67
2023/03/08 05:12:05;;;;;;;;;;;;;;;2.48;100.00;99194.59;5575840;31;33612;-69
2023/03/08 05:15:16;;;;;;;;;;;;;;;2.57;100.00;99193.72;5589098;31;34270;-69
2023/03/08 05:18:23;;;;;;;;;;;;;;;2.54;100.00;99198.44;5589721;31;34528;-69
2023/03/08 05:21:30;;;;;;;;;;;;;;;2.53;100.00;99191.53;5589798;31;34285;-69
2023/03/08 05:24:39;;;;;;;;;;;;;;;2.44;100.00;99197.66;5590015;31;34320;-68
2023/03/08 05:27:49;;;;;;;;;;;;;;;2.45;100.00;99183.59;5563873;31;33266;-69
2023/03/08 05:31:04;;;;;;;;;;;;;;;2.46;100.00;99191.31;5588875;31;34858;-68
2023/03/08 05:34:16;;;;;;;;;;;;;;;2.49;100.00;99201.47;5576320;31;33423;-68
2023/03/08 05:37:24;;;;;;;;;;;;;;;2.44;100.00;99208.94;5575781;31;34848;-69
2023/03/08 05:40:37;;;;;;;;;;;;;;;2.54;100.00;99224.59;5588121;31;34791;-68
2023/03/08 05:43:45;;;;;;;;;;;;;;;2.64;100.00;99235.84;5588793;31;34700;-69
2023/03/08 05:46:53;;;;;;;;;;;;;;;2.84;100.00;99239.19;5575659;31;32050;-68
2023/03/08 05:50:01;;;;;;;;;;;;;;;2.89;100.00;99234.34;5576505;31;34012;-68
2023/03/08 05:53:10;;;;;;;;;;;;;;;2.98;100.00;99233.47;5588547;31;33425;-68
2023/03/08 05:56:22;;;;;;;;;;;;;;;3.18;100.00;99240.22;5575487;31;35033;-68
2023/03/08 05:59:32;;;;;;;;;;;;;;;3.44;100.00;99250.78;5588535;31;33955;-67
2023/03/08 06:02:40;;;;;;;;;;;;;;;4.14;100.00;99247.25;5589396;31;34525;-68
2023/03/08 06:05:47;;;;;;;;;;;;;;;4.39;100.00;99258.72;5589313;31;34867;-68
2023/03/08 06:08:55;;;;;;;;;;;;;;;4.72;100.00;99268.41;5575804;31;32884;-68
2023/03/08 06:12:06;;;;;;;;;;;;;;;4.94;100.00;99272.25;5589153;31;34320;-69
2023/03/08 06:15:12;;;;;;;;;;;;;;;5.01;100.00;99277.72;5587974;31;33397;-68
2023/03/08 06:18:19;;;;;;;;;;;;;;;5.17;100.00;99281.22;5588273;31;35112;-69
2023/03/08 06:21:24;;;;;;;;;;;;;;;5.22;100.00;99272.84;5589014;31;35213;-69
2023/03/08 06:24:34;;;;;;;;;;;;;;;5.20;100.00;99270.37;5588868;31;33287;-69
2023/03/08 06:27:41;;;;;;;;;;;;;;;5.22;100.00;99278.94;5575355;31;34414;-68
2023/03/08 06:30:51;;;;;;;;;;;;;;;5.33;100.00;99290.13;5575529;31;34948;-69
2023/03/08 06:33:56;;;;;;;;;;;;;;;5.33;100.00;99287.47;5575353;31;34306;-68
2023/03/08 06:37:07;;;;;;;;;;;;;;;5.44;100.00;99297.72;5588056;31;34272;-69
2023/03/08 06:40:13;;;;;;;;;;;;;;;5.49;100.00;99304.12;5575493;31;34514;-69
2023/03/08 06:43:20;;;;;;;;;;;;;;;5.76;100.00;99304.84;5587720;31;34284;-69
2023/03/08 06:46:26;;;;;;;;;;;;;;;5.98;100.00;99318.22;5586989;31;34709;-69
2023/03/08 06:49:33;;;;;;;;;;;;;;;6.10;100.00;99316.03;5587609;31;35030;-69
2023/03/08 06:52:39;;;;;;;;;;;;;;;6.12;100.00;99321.97;5574943;31;33701;-68
2023/03/08 06:55:45;;;;;;;;;;;;;;;6.01;100.00;99328.41;5587429;31;34009;-68
2023/03/08 06:58:52;;;;;;;;;;;;;;;5.86;100.00;99318.62;5590085;31;34207;-68
2023/03/08 07:01:58;;;;;;;;;;;;;;;5.89;100.00;99326.25;5590854;31;34295;-68
2023/03/08 07:05:03;;;;;;;;;;;;;;;5.95;99.79;99320.34;5590047;31;34852;-68
2023/03/08 07:08:11;;;;;;;;;;;;;;;5.92;97.41;99329.38;5589882;31;34820;-68
2023/03/08 07:11:15;;;;;;;;;;;;;;;5.81;95.52;99326.25;5589311;31;35527;-67
2023/03/08 07:14:20;;;;;;;;;;;;;;;5.84;97.14;99345.16;5589504;31;34661;-67
2023/03/08 07:17:23;;;;;;;;;;;;;;;5.79;97.51;99341.34;5576826;31;35794;-67
2023/03/08 07:20:28;;;;;;;;;;;;;;;5.79;97.93;99355.34;5576922;31;32834;-67
2023/03/08 07:23:32;;;;;;;;;;;;;;;5.75;98.60;99348.75;5577114;31;34087;-67
2023/03/08 07:26:38;;;;;;;;;;;;;;;5.88;97.38;99364.09;5589283;31;35293;-67
2023/03/08 07:29:43;;;;;;;;;;;;;;;6.06;95.70;99368.22;5590396;31;34353;-67
2023/03/08 07:32:48;;;;;;;;;;;;;;;6.02;95.01;99368.72;5576860;31;34084;-68
2023/03/08 07:35:54;;;;;;;;;;;;;;;6.21;92.65;99373.66;5590068;31;33153;-68
2023/03/08 07:38:59;;;;;;;;;;;;;;;6.52;90.95;99373.81;5589948;31;33724;-67
2023/03/08 07:42:04;;;;;;;;;;;;;;;6.63;88.30;99373.50;5589872;31;34976;-68
2023/03/08 07:45:09;;;;;;;;;;;;;;;6.66;88.22;99373.16;5590476;31;34186;-68
2023/03/08 07:48:14;;;;;;;;;;;;;;;6.59;88.32;99382.69;5589313;31;32830;-67
2023/03/08 07:51:20;;;;;;;;;;;;;;;6.50;88.50;99381.88;5589604;31;34325;-67
2023/03/08 07:54:29;;;;;;;;;;;;;;;6.68;87.44;99384.31;5589291;31;33454;-67
2023/03/08 07:57:34;;;;;;;;;;;;;;;7.17;82.69;99381.56;5589583;31;34275;-67
2023/03/08 08:00:39;;;;;;;;;;;;;;;7.38;78.67;99387.94;5590168;31;34222;-69
2023/03/08 08:03:46;;;;;;;;;;;;;;;7.64;80.16;99392.09;5589707;31;33766;-67
2023/03/08 08:06:52;;;;;;;;;;;;;;;7.54;73.22;99397.59;5590207;31;34897;-67
2023/03/08 08:09:57;;;;;;;;;;;;;;;7.41;73.45;99403.41;5588350;31;33848;-69
2023/03/08 08:13:01;;;;;;;;;;;;;;;7.15;73.67;99402.03;5589564;31;34374;-67
2023/03/08 08:16:06;;;;;;;;;;;;;;;7.31;70.32;99408.06;5576600;31;34997;-67
2023/03/08 08:19:13;;;;;;;;;;;;;;;7.44;70.05;99404.91;5589630;31;35435;-67
2023/03/08 08:22:20;;;;;;;;;;;;;;;7.58;68.43;99413.91;5589868;31;33295;-68
2023/03/08 08:25:24;;;;;;;;;;;;;;;7.83;66.60;99416.25;5576150;31;33148;-68
2023/03/08 08:28:29;;;;;;;;;;;;;;;7.79;66.31;99412.28;5590256;31;34368;-67
2023/03/08 08:31:33;;;;;;;;;;;;;;;7.77;64.59;99414.31;5589461;31;33702;-67
2023/03/08 08:34:39;;;;;;;;;;;;;;;8.09;64.21;99409.81;5589503;31;34810;-67
2023/03/08 08:37:46;;;;;;;;;;;;;;;8.10;62.39;99414.09;5590118;31;34945;-67
2023/03/08 08:40:52;;;;;;;;;;;;;;;8.39;61.24;99416.06;5589330;31;34416;-67
2023/03/08 08:43:59;;;;;;;;;;;;;;;8.52;60.15;99403.88;5588753;31;32853;-68
2023/03/08 08:47:04;;;;;;;;;;;;;;;8.56;59.86;99405.19;5589701;31;34772;-67
2023/03/08 08:50:09;;;;;;;;;;;;;;;8.50;58.95;99407.72;5589515;31;32787;-67
2023/03/08 08:53:17;;;;;;;;;;;;;;;8.48;58.10;99412.34;5576732;31;34946;-67
2023/03/08 08:56:24;;;;;;;;;;;;;;;8.26;59.26;99400.78;5590003;31;34219;-68
2023/03/08 08:59:33;;;;;;;;;;;;;;;8.37;58.87;99407.50;5589676;31;34853;-68
2023/03/08 09:02:37;;;;;;;;;;;;;;;8.38;59.79;99407.31;5588780;31;34424;-67
2023/03/08 09:05:43;;;;;;;;;;;;;;;8.63;59.39;99395.53;5576398;31;34510;-68
2023/03/08 09:08:49;;;;;;;;;;;;;;;8.89;57.08;99395.12;5576346;31;33561;-67
2023/03/08 09:11:57;;;;;;;;;;;;;;;9.26;54.93;99394.22;5589420;31;34365;-67
2023/03/08 09:15:01;;;;;;;;;;;;;;;8.87;55.64;99393.66;5588967;31;34359;-67
2023/03/08 09:18:06;;;;;;;;;;;;;;;8.99;55.12;99390.41;5588993;31;34144;-67
2023/03/08 09:21:10;;;;;;;;;;;;;;;9.21;54.22;99382.53;5588654;31;34552;-67
2023/03/08 09:24:15;;;;;;;;;;;;;;;9.78;52.55;99386.09;5588844;31;35704;-67
2023/03/08 09:27:20;;;;;;;;;;;;;;;9.78;51.76;99374.72;5589016;31;35282;-67
2023/03/08 09:30:24;;;;;;;;;;;;;;;10.19;50.70;99378.41;5588828;31;33419;-67
2023/03/08 09:33:28;;;;;;;;;;;;;;;10.27;50.53;99372.97;5588900;31;34101;-68
2023/03/08 09:36:31;;;;;;;;;;;;;;;10.41;50.63;99371.25;5589716;31;34857;-67
2023/03/08 09:39:34;;;;;;;;;;;;;;;10.53;49.49;99374.22;5588821;31;32861;-67
2023/03/08 09:42:38;;;;;;;;;;;;;;;10.83;48.53;99378.34;5588463;31;33434;-68
2023/03/08 09:45:42;;;;;;;;;;;;;;;10.71;49.05;99372.72;5589715;31;34342;-66
2023/03/08 09:48:49;;;;;;;;;;;;;;;10.90;47.97;99387.16;5589017;31;34261;-67
2023/03/08 09:51:59;;;;;;;;;;;;;;;10.77;47.47;99382.59;5589790;31;34341;-67
2023/03/08 09:55:06;;;;;;;;;;;;;;;10.60;48.34;99372.47;5589514;31;33801;-67
2023/03/08 09:58:24;;;;;;;;;;;;;;;10.84;47.88;99385.28;5588722;31;34024;-69
2023/03/08 10:01:35;;;;;;;;;;;;;;;10.85;47.63;99384.25;5588641;31;33793;-67
2023/03/08 10:04:48;;;;;;;;;;;;;;;10.46;48.29;99379.47;5588551;31;34327;-66
2023/03/08 10:08:16;;;;;;;;;;;;;;;10.70;48.59;99357.00;5577421;31;33340;-66
2023/03/08 10:11:27;;;;;;;;;;;;;;;10.59;50.06;99358.38;5588431;31;34221;-67
2023/03/08 10:14:34;;;;;;;;;;;;;;;11.09;47.48;99353.78;5588555;31;34308;-66
2023/03/08 10:17:43;;;;;;;;;;;;;;;11.85;43.36;99362.53;5588952;31;34220;-67
2023/03/08 10:20:48;;;;;;;;;;;;;;;11.71;43.15;99365.09;5589067;31;34921;-67
2023/03/08 10:24:13;;;;;;;;;;;;;;;11.25;43.83;99361.44;5588934;31;34096;-67
2023/03/08 10:27:19;;;;;;;;;;;;;;;11.40;44.07;99358.63;5575442;31;34321;-68
2023/03/08 10:30:27;;;;;;;;;;;;;;;11.92;42.99;99358.84;5588075;31;35080;-68
2023/03/08 10:33:33;;;;;;;;;;;;;;;11.65;44.39;99360.59;5588278;31;34867;-69
2023/03/08 10:36:55;;;;;;;;;;;;;;;11.56;46.84;99348.50;5587641;31;35027;-68
2023/03/08 10:40:03;;;;;;;;;;;;;;;10.47;51.36;99351.94;5588609;31;34321;-68
2023/03/08 10:43:16;;;;;;;;;;;;;;;10.48;53.06;99353.59;5587892;31;34192;-67
2023/03/08 10:46:24;;;;;;;;;;;;;;;11.16;51.45;99366.09;5587712;31;34092;-67
2023/03/08 10:49:30;;;;;;;;;;;;;;;11.97;49.35;99356.41;5588692;31;34321;-67
2023/03/08 10:52:35;;;;;;;;;;;;;;;12.29;48.13;99365.47;5587844;31;34759;-68
2023/03/08 10:55:43;;;;;;;;;;;;;;;12.28;48.68;99355.84;5587642;31;33173;-68
2023/03/08 10:58:53;;;;;;;;;;;;;;;12.54;48.60;99357.66;5575032;31;33620;-68
2023/03/08 11:02:21;;;;;;;;;;;;;;;12.44;47.94;99351.97;5588205;31;34351;-68
2023/03/08 11:05:27;;;;;;;;;;;;;;;11.21;50.49;99337.13;5587852;31;34301;-67
2023/03/08 11:08:38;;;;;;;;;;;;;;;10.70;51.86;99339.25;5575230;31;34963;-69
2023/03/08 11:11:42;;;;;;;;;;;;;;;12.05;48.73;99334.16;5588560;31;34253;-67
2023/03/08 11:14:46;;;;;;;;;;;;;;;11.92;48.38;99334.94;5587897;31;34320;-67
2023/03/08 11:17:51;;;;;;;;;;;;;;;12.64;46.01;99326.97;5587997;31;33441;-67
2023/03/08 11:21:01;;;;;;;;;;;;;;;12.94;45.46;99318.53;5587140;31;34301;-68
2023/03/08 11:24:25;;;;;;;;;;;;;;;12.01;47.83;99322.25;5588373;31;34412;-68
2023/03/08 11:27:31;;;;;;;;;;;;;;;14.31;43.28;99316.19;5587865;31;34330;-67
2023/03/08 11:30:48;;;;;;;;;;;;;;;15.22;39.89;99306.47;5588027;31;34568;-69
2023/03/08 11:34:29;;;;;;;;;;;;;;;16.11;38.71;99312.09;5587010;31;34831;-69
2023/03/08 11:37:41;;;;;;;;;;;;;;;15.69;38.01;99316.59;5486117;31;32580;-68
2023/03/08 11:41:01;;;;;;;;;;;;;;;14.51;40.38;99313.41;5587197;31;34403;-68
2023/03/08 11:44:21;;;;;;;;;;;;;;;12.63;42.96;99319.22;5589785;31;33801;-67
2023/03/08 11:47:43;;;;;;;;;;;;;;;11.36;45.76;99304.28;5590750;31;34466;-67
2023/03/08 11:50:57;;;;;;;;;;;;;;;11.86;45.10;99295.06;5590743;31;34715;-67
2023/03/08 11:54:04;;;;;;;;;;;;;;;10.90;46.80;99294.28;5590567;31;34593;-67
2023/03/08 11:57:09;;;;;;;;;;;;;;;11.06;46.59;99293.13;5590293;31;34125;-67
2023/03/08 12:00:21;;;;;;;;;;;;;;;10.70;47.77;99293.34;5589924;31;34924;-67
2023/03/08 12:03:34;;;;;;;;;;;;;;;10.47;48.05;99296.25;5589727;31;34959;-66
2023/03/08 12:06:41;;;;;;;;;;;;;;;10.23;49.14;99286.91;5576716;31;34530;-67
2023/03/08 12:09:53;;;;;;;;;;;;;;;10.73;47.46;99285.84;5590472;31;34201;-67
2023/03/08 12:12:59;;;;;;;;;;;;;;;10.73;47.92;99277.06;5589423;31;34122;-67
2023/03/08 12:16:02;;;;;;;;;;;;;;;11.06;47.33;99275.38;5589619;31;33437;-67
2023/03/08 12:19:15;;;;;;;;;;;;;;;11.25;46.10;99268.50;5589714;31;34818;-67
2023/03/08 12:22:40;;;;;;;;;;;;;;;10.58;46.46;99279.00;5589641;31;34905;-68
2023/03/08 12:25:45;;;;;;;;;;;;;;;10.94;46.00;99274.28;5576754;31;32779;-68
2023/03/08 12:28:59;;;;;;;;;;;;;;;10.90;45.06;99265.91;5589382;31;33932;-68
2023/03/08 12:32:04;;;;;;;;;;;;;;;10.78;45.46;99270.16;5589354;31;34238;-67
2023/03/08 12:35:27;;;;;;;;;;;;;;;10.92;45.16;99272.88;5590270;31;34364;-68
2023/03/08 12:38:35;;;;;;;;;;;;;;;10.98;46.25;99262.28;5576469;31;32595;-67
2023/03/08 12:41:42;;;;;;;;;;;;;;;11.04;46.22;99250.03;5589322;31;34436;-67
2023/03/08 12:44:47;;;;;;;;;;;;;;;10.86;46.65;99240.78;5589152;31;34219;-68
2023/03/08 12:48:03;;;;;;;;;;;;;;;10.83;47.50;99241.19;5589286;31;35516;-67
2023/03/08 12:51:11;;;;;;;;;;;;;;;10.62;48.04;99228.03;5576556;31;33288;-66
2023/03/08 12:54:21;;;;;;;;;;;;;;;11.29;46.84;99220.12;5588694;31;34245;-67
2023/03/08 12:57:33;;;;;;;;;;;;;;;11.69;46.32;99215.69;5589935;31;34179;-67
2023/03/08 13:00:38;;;;;;;;;;;;;;;11.01;47.82;99211.47;5589098;31;34270;-67
2023/03/08 13:03:42;;;;;;;;;;;;;;;10.75;49.61;99190.94;5575764;31;33770;-67
2023/03/08 13:06:50;;;;;;;;;;;;;;;12.17;46.28;99179.13;5589007;31;34987;-67
2023/03/08 13:10:16;;;;;;;;;;;;;;;12.08;44.87;99180.38;5589902;31;34995;-67
2023/03/08 13:13:28;;;;;;;;;;;;;;;13.98;41.66;99168.97;5540022;31;34111;-67
2023/03/08 13:16:41;;;;;;;;;;;;;;;13.42;41.24;99154.66;5589086;31;35615;-67
2023/03/08 13:19:48;;;;;;;;;;;;;;;13.33;41.51;99144.47;5576392;31;34222;-67
2023/03/08 13:23:21;;;;;;;;;;;;;;;13.48;41.19;99129.81;5575853;31;34734;-68
2023/03/08 13:26:44;;;;;;;;;;;;;;;14.04;40.67;99117.44;5577344;31;34540;-69
2023/03/08 13:29:53;;;;;;;;;;;;;;;16.03;36.35;99124.09;5589781;31;34916;-68
2023/03/08 13:32:59;;;;;;;;;;;;;;;15.98;35.93;99123.19;5590028;31;34240;-68
2023/03/08 13:36:06;;;;;;;;;;;;;;;14.15;37.10;99112.16;5589118;31;35123;-66
2023/03/08 13:39:18;;;;;;;;;;;;;;;12.46;40.66;99100.69;5588956;31;34284;-68
2023/03/08 13:42:23;;;;;;;;;;;;;;;11.74;41.41;99104.34;5588862;31;34456;-66
2023/03/08 13:45:28;;;;;;;;;;;;;;;11.76;41.73;99078.37;5589658;31;34696;-67
2023/03/08 13:48:34;;;;;;;;;;;;;;;11.94;42.31;99071.63;5589648;31;34381;-67
2023/03/08 13:51:41;;;;;;;;;;;;;;;11.74;43.46;99069.81;5576103;31;32881;-67
2023/03/08 13:54:50;;;;;;;;;;;;;;;12.29;43.30;99072.94;5588415;31;34588;-66
2023/03/08 13:57:55;;;;;;;;;;;;;;;11.68;44.63;99075.91;5589454;31;34301;-66
2023/03/08 14:01:00;;;;;;;;;;;;;;;11.28;45.85;99068.97;5588539;31;33260;-67
2023/03/08 14:04:11;;;;;;;;;;;;;;;11.70;45.59;99059.78;5588485;31;34139;-67
2023/03/08 14:07:27;;;;;;;;;;;;;;;12.00;44.89;99065.47;5586930;31;34857;-67
2023/03/08 14:10:39;;;;;;;;;;;;;;;12.17;45.40;99066.62;5588501;31;34325;-66
2023/03/08 14:13:49;;;;;;;;;;;;;;;12.06;46.09;99061.94;5588421;31;34670;-67
2023/03/08 14:16:56;;;;;;;;;;;;;;;11.50;48.82;99074.91;5588896;31;34903;-67
2023/03/08 14:20:05;;;;;;;;;;;;;;;11.91;48.48;99074.69;5588553;31;34300;-67
2023/03/08 14:23:22;;;;;;;;;;;;;;;11.48;49.53;99075.09;5589238;31;33887;-67
2023/03/08 14:26:32;;;;;;;;;;;;;;;11.82;49.44;99060.78;5588150;31;34892;-68
2023/03/08 14:29:38;;;;;;;;;;;;;;;11.41;50.83;99060.22;5588208;31;34210;-67
2023/03/08 14:32:59;;;;;;;;;;;;;;;11.25;51.62;99059.59;5575109;31;34251;-67
2023/03/08 14:36:04;;;;;;;;;;;;;;;11.64;52.02;99056.09;5588413;31;32799;-68
2023/03/08 14:39:15;;;;;;;;;;;;;;;12.61;48.89;99061.31;5574659;31;33567;-68
2023/03/08 14:42:34;;;;;;;;;;;;;;;12.70;49.15;99069.06;5574687;31;35148;-67
2023/03/08 14:45:40;;;;;;;;;;;;;;;12.14;50.90;99067.88;5588876;31;34800;-68
2023/03/08 14:48:55;;;;;;;;;;;;;;;11.91;52.34;99069.38;5588045;31;34944;-67
2023/03/08 14:52:01;;;;;;;;;;;;;;;11.69;53.55;99071.41;5587895;31;33900;-67
2023/03/08 14:55:22;;;;;;;;;;;;;;;11.20;55.79;99075.31;5575194;31;33512;-67
2023/03/08 14:58:29;;;;;;;;;;;;;;;11.20;56.25;99077.97;5588295;31;34562;-67
2023/03/08 15:01:35;;;;;;;;;;;;;;;11.13;56.67;99066.56;5587807;31;34953;-66
2023/03/08 15:04:42;;;;;;;;;;;;;;;11.00;57.88;99060.38;5587050;31;34753;-66
2023/03/08 15:07:49;;;;;;;;;;;;;;;10.95;59.21;99046.91;5587182;31;34824;-67
2023/03/08 15:10:54;;;;;;;;;;;;;;;11.17;60.17;99043.06;5587304;31;33948;-66
2023/03/08 15:13:59;;;;;;;;;;;;;;;11.36;59.16;99030.81;5588099;31;34346;-68
2023/03/08 15:17:06;;;;;;;;;;;;;;;11.26;60.17;99023.25;5586988;31;35350;-68
2023/03/08 15:20:13;;;;;;;;;;;;;;;10.98;61.64;99020.81;5577266;31;33510;-67
2023/03/08 15:23:23;;;;;;;;;;;;;;;11.09;62.34;99011.41;5590718;31;34222;-67
2023/03/08 15:26:32;;;;;;;;;;;;;;;11.04;62.35;99004.03;5589771;31;35065;-65
2023/03/08 15:29:37;;;;;;;;;;;;;;;10.94;63.63;99006.28;5590493;31;34825;-67
2023/03/08 15:32:43;;;;;;;;;;;;;;;10.91;64.60;98998.75;5577083;31;34406;-66
2023/03/08 15:35:50;;;;;;;;;;;;;;;10.87;65.44;99000.19;5589778;31;34427;-66
2023/03/08 15:38:56;;;;;;;;;;;;;;;10.83;67.19;98999.78;5590270;31;34978;-66
2023/03/08 15:42:01;;;;;;;;;;;;;;;10.92;68.28;98992.44;5589751;31;34903;-67
2023/03/08 15:45:12;;;;;;;;;;;;;;;10.95;69.31;98993.84;5577224;31;34266;-67
2023/03/08 15:48:18;;;;;;;;;;;;;;;10.87;71.29;98982.44;5576698;31;33215;-67
2023/03/08 15:51:28;;;;;;;;;;;;;;;10.84;73.13;98974.84;5589635;31;34146;-67
2023/03/08 15:54:34;;;;;;;;;;;;;;;10.80;74.63;98962.19;5589464;31;35499;-67
2023/03/08 15:57:41;;;;;;;;;;;;;;;10.78;76.82;98953.66;5590165;31;34147;-66
2023/03/08 16:00:47;;;;;;;;;;;;;;;10.86;77.91;98946.28;5576973;31;32667;-66
2023/03/08 16:03:55;;;;;;;;;;;;;;;10.86;78.38;98954.25;5576544;31;32689;-67
2023/03/08 16:07:03;;;;;;;;;;;;;;;10.78;80.71;98946.50;5589359;31;34302;-67
2023/03/08 16:10:11;;;;;;;;;;;;;;;10.79;81.83;98949.97;5576683;31;35484;-66
2023/03/08 16:13:20;;;;;;;;;;;;;;;10.73;83.50;98948.97;5589262;31;34158;-68
2023/03/08 16:16:28;;;;;;;;;;;;;;;10.68;85.73;98943.44;5590218;31;34891;-67
2023/03/08 16:19:47;;;;;;;;;;;;;;;10.72;86.39;98943.84;5590277;31;34527;-68
2023/03/08 16:22:55;;;;;;;;;;;;;;;10.63;87.99;98937.94;5589446;31;33141;-68
2023/03/08 16:26:04;;;;;;;;;;;;;;;10.67;90.05;98943.63;5590160;31;34741;-67